Time,TemperatureF,DewpointF,PressureIn,WindDirection,WindDirectionDegrees,WindSpeedMPH,WindSpeedGustMPH,Humidity,HourlyPrecipIn,Conditions,Clouds,dailyrainin,SoftwareType,DateUTC
2013-04-21 00:05:00,38.8,30.0,30.39,West,270,0.0,0.0,72,0.00,,,0.00,weatherlink.com 1.10,2013-04-21 04:05:00,
2013-04-21 00:20:00,38.4,30.0,30.39,West,270,0.0,0.0,72,0.00,,,0.00,weatherlink.com 1.10,2013-04-21 04:20:00,
2013-04-21 00:35:00,38.6,31.0,30.39,West,269,0.0,0.0,74,0.00,,,0.00,weatherlink.com 1.10,2013-04-21 04:35:00,
2013-04-21 00:50:00,38.2,31.0,30.39,West,270,0.0,0.0,75,0.00,,,0.00,weatherlink.com 1.10,2013-04-21 04:50:00,
2013-04-21 01:05:00,38.0,30.0,30.40,West,269,0.0,0.0,73,0.00,,,0.00,weatherlink.com 1.10,2013-04-21 05:05:00,
2013-04-21 01:20:00,37.6,30.0,30.41,West,269,0.0,0.0,75,0.00,,,0.00,weatherlink.com 1.10,2013-04-21 05:20:00,
2013-04-21 01:35:00,37.1,30.0,30.41,West,270,0.0,0.0,74,0.00,,,0.00,weatherlink.com 1.10,2013-04-21 05:35:00,
2013-04-21 01:50:00,36.8,31.0,30.42,West,270,0.0,0.0,78,0.00,,,0.00,weatherlink.com 1.10,2013-04-21 05:50:00,
2013-04-21 02:05:00,36.7,28.0,30.42,West,270,0.0,0.0,72,0.00,,,0.00,weatherlink.com 1.10,2013-04-21 06:05:00,
2013-04-21 02:20:00,36.8,28.0,30.43,West,270,0.0,0.0,70,0.00,,,0.00,weatherlink.com 1.10,2013-04-21 06:20:00,
2013-04-21 02:35:00,36.6,28.0,30.44,West,270,0.0,0.0,70,0.00,,,0.00,weatherlink.com 1.10,2013-04-21 06:35:00,
2013-04-21 02:50:00,36.3,28.0,30.45,West,270,0.0,0.0,72,0.00,,,0.00,weatherlink.com 1.10,2013-04-21 06:50:00,
2013-04-21 03:05:00,35.9,28.0,30.45,West,270,0.0,0.0,73,0.00,,,0.00,weatherlink.com 1.10,2013-04-21 07:05:00,
2013-04-21 03:20:00,35.4,28.0,30.46,West,270,0.0,0.0,74,0.00,,,0.00,weatherlink.com 1.10,2013-04-21 07:20:00,
2013-04-21 03:35:00,35.2,28.0,30.46,West,270,0.0,0.0,74,0.00,,,0.00,weatherlink.com 1.10,2013-04-21 07:35:00,
2013-04-21 03:50:00,34.6,26.0,30.46,West,270,0.0,0.0,70,0.00,,,0.00,weatherlink.com 1.10,2013-04-21 07:50:00,
2013-04-21 04:05:00,34.0,27.0,30.47,West,270,0.0,0.0,74,0.00,,,0.00,weatherlink.com 1.10,2013-04-21 08:05:00,
2013-04-21 04:20:00,33.9,27.0,30.48,West,269,0.0,0.0,76,0.00,,,0.00,weatherlink.com 1.10,2013-04-21 08:20:00,
2013-04-21 04:35:00,33.2,27.0,30.49,West,269,0.0,0.0,79,0.00,,,0.00,weatherlink.com 1.10,2013-04-21 08:35:00,
2013-04-21 04:50:00,32.8,28.0,30.50,West,270,0.0,0.0,82,0.00,,,0.00,weatherlink.com 1.10,2013-04-21 08:50:00,
2013-04-21 05:05:00,32.4,28.0,30.50,West,269,0.0,0.0,83,0.00,,,0.00,weatherlink.com 1.10,2013-04-21 09:05:00,
2013-04-21 05:20:00,31.9,28.0,30.51,West,270,0.0,0.0,84,0.00,,,0.00,weatherlink.com 1.10,2013-04-21 09:20:00,
2013-04-21 05:35:00,31.4,27.0,30.51,West,269,0.0,0.0,85,0.00,,,0.00,weatherlink.com 1.10,2013-04-21 09:35:00,
2013-04-21 05:51:00,31.2,28.0,30.52,West,270,0.0,0.0,86,0.00,,,0.00,weatherlink.com 1.10,2013-04-21 09:51:00,
2013-04-21 06:06:00,30.7,26.0,30.53,West,270,0.0,0.0,83,0.00,,,0.00,weatherlink.com 1.10,2013-04-21 10:06:00,
2013-04-21 06:21:00,30.3,26.0,30.54,West,270,0.0,0.0,84,0.00,,,0.00,weatherlink.com 1.10,2013-04-21 10:21:00,
2013-04-21 06:36:00,30.2,26.0,30.55,West,270,0.0,0.0,84,0.00,,,0.00,weatherlink.com 1.10,2013-04-21 10:36:00,
2013-04-21 06:51:00,30.8,27.0,30.56,West,271,0.0,0.0,85,0.00,,,0.00,weatherlink.com 1.10,2013-04-21 10:51:00,
2013-04-21 07:06:00,31.5,27.0,30.58,West,273,0.0,0.0,82,0.00,,,0.00,weatherlink.com 1.10,2013-04-21 11:06:00,
2013-04-21 07:21:00,32.1,28.0,30.58,West,273,0.0,0.0,85,0.00,,,0.00,weatherlink.com 1.10,2013-04-21 11:21:00,
2013-04-21 07:36:00,32.3,28.0,30.59,West,273,0.0,0.0,85,0.00,,,0.00,weatherlink.com 1.10,2013-04-21 11:36:00,
2013-04-21 07:51:00,33.3,29.0,30.60,West,273,0.0,0.0,83,0.00,,,0.00,weatherlink.com 1.10,2013-04-21 11:51:00,
2013-04-21 08:06:00,35.2,29.0,30.60,SW,221,0.0,2.0,78,0.00,,,0.00,weatherlink.com 1.10,2013-04-21 12:06:00,
2013-04-21 08:21:00,37.6,27.0,30.61,SW,226,0.0,1.0,66,0.00,,,0.00,weatherlink.com 1.10,2013-04-21 12:21:00,
2013-04-21 08:36:00,40.3,26.0,30.61,SW,216,0.0,3.0,56,0.00,,,0.00,weatherlink.com 1.10,2013-04-21 12:36:00,
2013-04-21 08:51:00,41.7,27.0,30.61,South,184,2.0,3.0,56,0.00,,,0.00,weatherlink.com 1.10,2013-04-21 12:51:00,
2013-04-21 09:06:00,43.3,28.0,30.61,South,169,2.0,4.0,55,0.00,,,0.00,weatherlink.com 1.10,2013-04-21 13:06:00,
2013-04-21 09:21:00,43.8,27.0,30.62,SE,142,5.0,5.0,52,0.00,,,0.00,weatherlink.com 1.10,2013-04-21 13:21:00,
2013-04-21 09:36:00,43.8,26.0,30.62,WSW,255,2.0,5.0,50,0.00,,,0.00,weatherlink.com 1.10,2013-04-21 13:36:00,
2013-04-21 09:51:00,45.1,27.0,30.62,SSE,155,2.0,6.0,50,0.00,,,0.00,weatherlink.com 1.10,2013-04-21 13:51:00,
2013-04-21 10:06:00,45.2,27.0,30.63,SW,225,3.0,6.0,50,0.00,,,0.00,weatherlink.com 1.10,2013-04-21 14:06:00,
2013-04-21 10:21:00,46.4,28.0,30.63,WSW,248,1.0,6.0,50,0.00,,,0.00,weatherlink.com 1.10,2013-04-21 14:21:00,
2013-04-21 10:36:00,46.4,29.0,30.64,West,281,2.0,4.0,51,0.00,,,0.00,weatherlink.com 1.10,2013-04-21 14:36:00,
2013-04-21 10:51:00,47.5,28.0,30.64,SW,214,1.0,7.0,48,0.00,,,0.00,weatherlink.com 1.10,2013-04-21 14:51:00,
2013-04-21 11:06:00,47.9,28.0,30.64,SE,124,1.0,6.0,46,0.00,,,0.00,weatherlink.com 1.10,2013-04-21 15:06:00,
2013-04-21 11:21:00,48.0,30.0,30.63,SW,232,2.0,5.0,51,0.00,,,0.00,weatherlink.com 1.10,2013-04-21 15:21:00,
2013-04-21 11:36:00,47.7,29.0,30.64,WSW,238,2.0,8.0,49,0.00,,,0.00,weatherlink.com 1.10,2013-04-21 15:36:00,
2013-04-21 11:52:00,48.6,28.0,30.63,SE,142,4.0,6.0,46,0.00,,,0.00,weatherlink.com 1.10,2013-04-21 15:52:00,
2013-04-21 12:07:00,48.3,29.0,30.63,SW,222,0.0,8.0,48,0.00,,,0.00,weatherlink.com 1.10,2013-04-21 16:07:00,
2013-04-21 12:22:00,48.8,28.0,30.63,ESE,104,2.0,8.0,44,0.00,,,0.00,weatherlink.com 1.10,2013-04-21 16:22:00,
2013-04-21 12:37:00,49.9,27.0,30.63,East,82,2.0,7.0,42,0.00,,,0.00,weatherlink.com 1.10,2013-04-21 16:37:00,
2013-04-21 12:52:00,50.3,28.0,30.62,SW,229,5.0,8.0,43,0.00,,,0.00,weatherlink.com 1.10,2013-04-21 16:52:00,
2013-04-21 13:07:00,51.5,32.0,30.61,SSE,155,2.0,7.0,47,0.00,,,0.00,weatherlink.com 1.10,2013-04-21 17:07:00,
2013-04-21 13:22:00,51.8,34.0,30.61,North,10,3.0,8.0,50,0.00,,,0.00,weatherlink.com 1.10,2013-04-21 17:22:00,
2013-04-21 13:37:00,51.5,28.0,30.61,SSW,204,3.0,8.0,41,0.00,,,0.00,weatherlink.com 1.10,2013-04-21 17:37:00,
2013-04-21 13:52:00,50.7,27.0,30.61,SW,221,2.0,9.0,40,0.00,,,0.00,weatherlink.com 1.10,2013-04-21 17:52:00,
2013-04-21 14:07:00,50.5,27.0,30.60,SE,131,2.0,8.0,41,0.00,,,0.00,weatherlink.com 1.10,2013-04-21 18:07:00,
2013-04-21 14:22:00,51.7,29.0,30.60,SSE,160,2.0,10.0,42,0.00,,,0.00,weatherlink.com 1.10,2013-04-21 18:22:00,
2013-04-21 14:37:00,52.5,32.0,30.59,SE,131,4.0,8.0,45,0.00,,,0.00,weatherlink.com 1.10,2013-04-21 18:37:00,
2013-04-21 14:52:00,53.1,31.0,30.59,SE,142,5.0,7.0,43,0.00,,,0.00,weatherlink.com 1.10,2013-04-21 18:52:00,
2013-04-21 15:07:00,52.6,33.0,30.59,North,4,1.0,8.0,47,0.00,,,0.00,weatherlink.com 1.10,2013-04-21 19:07:00,
2013-04-21 15:22:00,53.4,33.0,30.59,SSW,201,1.0,4.0,46,0.00,,,0.00,weatherlink.com 1.10,2013-04-21 19:22:00,
2013-04-21 15:37:00,53.9,32.0,30.58,SE,142,0.0,7.0,44,0.00,,,0.00,weatherlink.com 1.10,2013-04-21 19:37:00,
2013-04-21 15:52:00,52.6,29.0,30.58,WNW,290,1.0,5.0,40,0.00,,,0.00,weatherlink.com 1.10,2013-04-21 19:52:00,
2013-04-21 16:07:00,53.0,29.0,30.58,SE,135,1.0,5.0,40,0.00,,,0.00,weatherlink.com 1.10,2013-04-21 20:07:00,
2013-04-21 16:22:00,54.3,33.0,30.58,ENE,60,4.0,5.0,44,0.00,,,0.00,weatherlink.com 1.10,2013-04-21 20:22:00,
2013-04-21 16:37:00,53.1,28.0,30.57,SSE,163,0.0,5.0,38,0.00,,,0.00,weatherlink.com 1.10,2013-04-21 20:37:00,
2013-04-21 16:52:00,52.9,29.0,30.58,SE,146,1.0,7.0,40,0.00,,,0.00,weatherlink.com 1.10,2013-04-21 20:52:00,
2013-04-21 17:07:00,52.6,29.0,30.57,SE,138,2.0,6.0,40,0.00,,,0.00,weatherlink.com 1.10,2013-04-21 21:07:00,
2013-04-21 17:22:00,52.0,29.0,30.57,East,84,0.0,3.0,41,0.00,,,0.00,weatherlink.com 1.10,2013-04-21 21:22:00,
2013-04-21 17:37:00,52.8,30.0,30.58,East,90,1.0,4.0,42,0.00,,,0.00,weatherlink.com 1.10,2013-04-21 21:37:00,
2013-04-21 17:52:00,52.1,31.0,30.57,NE,53,2.0,5.0,44,0.00,,,0.00,weatherlink.com 1.10,2013-04-21 21:52:00,
2013-04-21 18:07:00,51.8,28.0,30.58,ESE,107,0.0,3.0,40,0.00,,,0.00,weatherlink.com 1.10,2013-04-21 22:07:00,
2013-04-21 18:22:00,51.5,28.0,30.58,SE,146,0.0,2.0,41,0.00,,,0.00,weatherlink.com 1.10,2013-04-21 22:22:00,
2013-04-21 18:37:00,51.0,28.0,30.57,NW,305,1.0,2.0,42,0.00,,,0.00,weatherlink.com 1.10,2013-04-21 22:37:00,
2013-04-21 18:52:00,50.6,30.0,30.58,ESE,121,0.0,1.0,45,0.00,,,0.00,weatherlink.com 1.10,2013-04-21 22:52:00,
2013-04-21 19:07:00,50.4,30.0,30.58,ESE,121,0.0,0.0,45,0.00,,,0.00,weatherlink.com 1.10,2013-04-21 23:07:00,
2013-04-21 19:22:00,49.8,30.0,30.58,ESE,121,0.0,0.0,46,0.00,,,0.00,weatherlink.com 1.10,2013-04-21 23:22:00,
2013-04-21 19:37:00,49.0,30.0,30.58,ESE,121,0.0,0.0,48,0.00,,,0.00,weatherlink.com 1.10,2013-04-21 23:37:00,
2013-04-21 19:52:00,48.1,29.0,30.59,ESE,121,0.0,0.0,47,0.00,,,0.00,weatherlink.com 1.10,2013-04-21 23:52:00,
2013-04-21 20:07:00,47.0,30.0,30.59,ESE,121,0.0,0.0,51,0.00,,,0.00,weatherlink.com 1.10,2013-04-22 00:07:00,
2013-04-21 20:22:00,46.1,30.0,30.59,ESE,121,0.0,0.0,54,0.00,,,0.00,weatherlink.com 1.10,2013-04-22 00:22:00,
2013-04-21 20:37:00,45.3,31.0,30.60,ESE,121,0.0,0.0,58,0.00,,,0.00,weatherlink.com 1.10,2013-04-22 00:37:00,
2013-04-21 20:52:00,44.4,32.0,30.60,ESE,121,0.0,0.0,63,0.00,,,0.00,weatherlink.com 1.10,2013-04-22 00:52:00,
2013-04-21 21:07:00,43.5,33.0,30.60,ESE,121,0.0,0.0,66,0.00,,,0.00,weatherlink.com 1.10,2013-04-22 01:07:00,
2013-04-21 21:22:00,42.6,33.0,30.61,ESE,121,0.0,0.0,69,0.00,,,0.00,weatherlink.com 1.10,2013-04-22 01:22:00,
2013-04-21 21:37:00,41.8,34.0,30.61,ESE,121,0.0,0.0,73,0.00,,,0.00,weatherlink.com 1.10,2013-04-22 01:37:00,
2013-04-21 21:52:00,42.4,32.0,30.62,ESE,110,1.0,9.0,68,0.00,,,0.00,weatherlink.com 1.10,2013-04-22 01:52:00,
2013-04-21 22:07:00,43.5,34.0,30.62,ESE,103,2.0,5.0,69,0.00,,,0.00,weatherlink.com 1.10,2013-04-22 02:07:00,
2013-04-21 22:22:00,43.0,34.0,30.62,East,80,0.0,8.0,71,0.00,,,0.00,weatherlink.com 1.10,2013-04-22 02:22:00,
2013-04-21 22:37:00,42.5,34.0,30.62,ENE,68,4.0,7.0,72,0.00,,,0.00,weatherlink.com 1.10,2013-04-22 02:37:00,
2013-04-21 22:52:00,42.3,34.0,30.62,East,82,3.0,5.0,73,0.00,,,0.00,weatherlink.com 1.10,2013-04-22 02:52:00,
2013-04-21 23:07:00,42.2,34.0,30.62,ESE,119,6.0,8.0,74,0.00,,,0.00,weatherlink.com 1.10,2013-04-22 03:07:00,
2013-04-21 23:22:00,42.2,34.0,30.62,NE,46,0.0,8.0,74,0.00,,,0.00,weatherlink.com 1.10,2013-04-22 03:22:00,
2013-04-21 23:37:00,42.2,35.0,30.63,West,269,1.0,7.0,75,0.00,,,0.00,weatherlink.com 1.10,2013-04-22 03:37:00,
2013-04-21 23:52:00,42.1,34.0,30.63,ESE,113,1.0,7.0,74,0.00,,,0.00,weatherlink.com 1.10,2013-04-22 03:52:00,